sensor_id;sensor_type;location;lat;lon;timestamp;P1;durP1;ratioP1;P2;durP2;ratioP2
19219;SDS011;9744;49.364;7.484;2023-09-12T00:00:43;17.67;;;5.68;;
19219;SDS011;9744;49.364;7.484;2023-09-12T00:03:10;12.82;;;5.07;;
19219;SDS011;9744;49.364;7.484;2023-09-12T00:05:38;12.48;;;5.10;;
19219;SDS011;9744;49.364;7.484;2023-09-12T00:08:05;10.73;;;5.38;;
19219;SDS011;9744;49.364;7.484;2023-09-12T00:10:33;10.90;;;5.10;;
19219;SDS011;9744;49.364;7.484;2023-09-12T00:13:00;13.85;;;5.65;;
19219;SDS011;9744;49.364;7.484;2023-09-12T00:15:29;13.30;;;5.40;;
19219;SDS011;9744;49.364;7.484;2023-09-12T00:17:57;16.17;;;6.13;;
19219;SDS011;9744;49.364;7.484;2023-09-12T00:20:24;17.65;;;6.32;;
19219;SDS011;9744;49.364;7.484;2023-09-12T00:22:51;16.45;;;5.47;;
19219;SDS011;9744;49.364;7.484;2023-09-12T00:25:20;9.52;;;5.07;;
19219;SDS011;9744;49.364;7.484;2023-09-12T00:27:47;11.88;;;5.82;;
19219;SDS011;9744;49.364;7.484;2023-09-12T00:30:14;12.68;;;5.28;;
19219;SDS011;9744;49.364;7.484;2023-09-12T00:32:45;18.08;;;5.32;;
19219;SDS011;9744;49.364;7.484;2023-09-12T00:35:12;14.68;;;5.47;;
19219;SDS011;9744;49.364;7.484;2023-09-12T00:37:40;16.58;;;5.30;;
19219;SDS011;9744;49.364;7.484;2023-09-12T00:40:07;11.85;;;5.45;;
19219;SDS011;9744;49.364;7.484;2023-09-12T00:42:35;9.20;;;4.80;;
19219;SDS011;9744;49.364;7.484;2023-09-12T00:45:02;10.50;;;5.03;;
19219;SDS011;9744;49.364;7.484;2023-09-12T00:47:29;17.08;;;5.55;;
19219;SDS011;9744;49.364;7.484;2023-09-12T00:49:58;13.18;;;5.10;;
19219;SDS011;9744;49.364;7.484;2023-09-12T00:52:27;19.35;;;5.57;;
19219;SDS011;9744;49.364;7.484;2023-09-12T00:54:55;13.93;;;5.80;;
19219;SDS011;9744;49.364;7.484;2023-09-12T00:57:24;11.57;;;4.97;;
19219;SDS011;9744;49.364;7.484;2023-09-12T00:59:52;13.07;;;5.05;;
19219;SDS011;9744;49.364;7.484;2023-09-12T01:02:21;16.45;;;5.30;;
19219;SDS011;9744;49.364;7.484;2023-09-12T01:04:48;12.77;;;4.90;;
19219;SDS011;9744;49.364;7.484;2023-09-12T01:07:17;9.82;;;5.05;;
19219;SDS011;9744;49.364;7.484;2023-09-12T01:09:45;7.65;;;4.20;;
19219;SDS011;9744;49.364;7.484;2023-09-12T01:12:12;12.00;;;5.07;;
19219;SDS011;9744;49.364;7.484;2023-09-12T01:14:41;13.45;;;4.97;;
19219;SDS011;9744;49.364;7.484;2023-09-12T01:17:08;10.88;;;5.05;;
19219;SDS011;9744;49.364;7.484;2023-09-12T01:19:35;8.18;;;4.70;;
19219;SDS011;9744;49.364;7.484;2023-09-12T01:22:09;11.20;;;4.80;;
19219;SDS011;9744;49.364;7.484;2023-09-12T01:25:05;14.15;;;4.70;;
19219;SDS011;9744;49.364;7.484;2023-09-12T01:27:38;8.75;;;4.75;;
19219;SDS011;9744;49.364;7.484;2023-09-12T01:30:08;9.68;;;5.05;;
19219;SDS011;9744;49.364;7.484;2023-09-12T01:32:38;8.00;;;4.53;;
19219;SDS011;9744;49.364;7.484;2023-09-12T01:35:06;9.77;;;5.05;;
19219;SDS011;9744;49.364;7.484;2023-09-12T01:37:34;10.10;;;5.20;;
19219;SDS011;9744;49.364;7.484;2023-09-12T01:40:02;7.38;;;5.10;;
19219;SDS011;9744;49.364;7.484;2023-09-12T01:42:31;9.93;;;4.88;;
19219;SDS011;9744;49.364;7.484;2023-09-12T01:45:04;8.45;;;4.45;;
19219;SDS011;9744;49.364;7.484;2023-09-12T01:47:36;7.60;;;4.13;;
19219;SDS011;9744;49.364;7.484;2023-09-12T01:50:05;7.97;;;4.90;;
19219;SDS011;9744;49.364;7.484;2023-09-12T01:52:38;13.63;;;4.82;;
19219;SDS011;9744;49.364;7.484;2023-09-12T01:55:07;12.07;;;4.80;;
19219;SDS011;9744;49.364;7.484;2023-09-12T01:57:36;8.55;;;4.35;;
19219;SDS011;9744;49.364;7.484;2023-09-12T02:03:01;7.93;;;4.88;;
19219;SDS011;9744;49.364;7.484;2023-09-12T02:05:30;11.65;;;4.60;;
19219;SDS011;9744;49.364;7.484;2023-09-12T02:07:58;9.68;;;5.13;;
19219;SDS011;9744;49.364;7.484;2023-09-12T02:10:25;7.63;;;4.78;;
19219;SDS011;9744;49.364;7.484;2023-09-12T02:12:53;11.43;;;5.20;;
19219;SDS011;9744;49.364;7.484;2023-09-12T02:15:21;6.55;;;4.30;;
19219;SDS011;9744;49.364;7.484;2023-09-12T02:17:50;9.35;;;4.22;;
19219;SDS011;9744;49.364;7.484;2023-09-12T02:20:18;14.10;;;4.10;;
19219;SDS011;9744;49.364;7.484;2023-09-12T02:22:46;11.23;;;4.45;;
19219;SDS011;9744;49.364;7.484;2023-09-12T02:25:13;12.00;;;4.35;;
19219;SDS011;9744;49.364;7.484;2023-09-12T02:27:41;11.13;;;4.80;;
19219;SDS011;9744;49.364;7.484;2023-09-12T02:30:08;12.70;;;4.47;;
19219;SDS011;9744;49.364;7.484;2023-09-12T02:32:36;15.38;;;5.18;;
19219;SDS011;9744;49.364;7.484;2023-09-12T02:35:05;10.57;;;4.50;;
19219;SDS011;9744;49.364;7.484;2023-09-12T02:37:33;9.60;;;4.40;;
19219;SDS011;9744;49.364;7.484;2023-09-12T02:40:01;10.50;;;4.40;;
19219;SDS011;9744;49.364;7.484;2023-09-12T02:42:29;11.88;;;4.32;;
19219;SDS011;9744;49.364;7.484;2023-09-12T02:44:56;10.00;;;4.38;;
19219;SDS011;9744;49.364;7.484;2023-09-12T02:47:24;8.88;;;4.35;;
19219;SDS011;9744;49.364;7.484;2023-09-12T02:49:51;9.63;;;4.45;;
19219;SDS011;9744;49.364;7.484;2023-09-12T02:52:20;12.10;;;4.25;;
19219;SDS011;9744;49.364;7.484;2023-09-12T02:54:47;10.10;;;4.20;;
19219;SDS011;9744;49.364;7.484;2023-09-12T02:57:15;8.60;;;4.00;;
19219;SDS011;9744;49.364;7.484;2023-09-12T02:59:42;7.75;;;4.30;;
19219;SDS011;9744;49.364;7.484;2023-09-12T03:02:10;8.75;;;4.32;;
19219;SDS011;9744;49.364;7.484;2023-09-12T03:04:38;8.38;;;4.25;;
19219;SDS011;9744;49.364;7.484;2023-09-12T03:07:05;5.75;;;3.92;;
19219;SDS011;9744;49.364;7.484;2023-09-12T03:09:35;6.28;;;4.00;;
19219;SDS011;9744;49.364;7.484;2023-09-12T03:12:04;8.38;;;4.47;;
19219;SDS011;9744;49.364;7.484;2023-09-12T03:14:31;9.68;;;4.55;;
19219;SDS011;9744;49.364;7.484;2023-09-12T03:16:59;10.70;;;4.75;;
19219;SDS011;9744;49.364;7.484;2023-09-12T03:19:26;6.43;;;4.38;;
19219;SDS011;9744;49.364;7.484;2023-09-12T03:21:56;11.30;;;4.60;;
19219;SDS011;9744;49.364;7.484;2023-09-12T03:24:23;8.15;;;4.32;;
19219;SDS011;9744;49.364;7.484;2023-09-12T03:26:52;7.15;;;4.13;;
19219;SDS011;9744;49.364;7.484;2023-09-12T03:29:20;5.88;;;4.00;;
19219;SDS011;9744;49.364;7.484;2023-09-12T03:31:48;10.48;;;4.50;;
19219;SDS011;9744;49.364;7.484;2023-09-12T03:34:16;8.32;;;4.38;;
19219;SDS011;9744;49.364;7.484;2023-09-12T03:36:43;9.43;;;3.85;;
19219;SDS011;9744;49.364;7.484;2023-09-12T03:39:10;13.45;;;5.35;;
19219;SDS011;9744;49.364;7.484;2023-09-12T03:41:38;13.80;;;5.00;;
19219;SDS011;9744;49.364;7.484;2023-09-12T03:44:07;14.35;;;4.43;;
19219;SDS011;9744;49.364;7.484;2023-09-12T03:46:36;17.45;;;5.00;;
19219;SDS011;9744;49.364;7.484;2023-09-12T03:49:03;11.55;;;4.55;;
19219;SDS011;9744;49.364;7.484;2023-09-12T03:51:30;10.98;;;5.18;;
19219;SDS011;9744;49.364;7.484;2023-09-12T03:53:58;12.63;;;5.72;;
19219;SDS011;9744;49.364;7.484;2023-09-12T03:56:26;21.38;;;4.95;;
19219;SDS011;9744;49.364;7.484;2023-09-12T03:58:53;10.38;;;5.38;;
19219;SDS011;9744;49.364;7.484;2023-09-12T04:01:25;16.67;;;5.20;;
19219;SDS011;9744;49.364;7.484;2023-09-12T04:03:53;16.52;;;5.40;;
19219;SDS011;9744;49.364;7.484;2023-09-12T04:06:20;9.52;;;5.07;;
19219;SDS011;9744;49.364;7.484;2023-09-12T04:08:47;13.20;;;5.10;;
19219;SDS011;9744;49.364;7.484;2023-09-12T04:11:15;14.07;;;5.55;;
19219;SDS011;9744;49.364;7.484;2023-09-12T04:13:46;14.93;;;5.43;;
19219;SDS011;9744;49.364;7.484;2023-09-12T04:16:15;14.55;;;5.63;;
19219;SDS011;9744;49.364;7.484;2023-09-12T04:18:44;14.43;;;5.50;;
19219;SDS011;9744;49.364;7.484;2023-09-12T04:21:12;16.15;;;6.00;;
19219;SDS011;9744;49.364;7.484;2023-09-12T04:23:39;18.58;;;6.47;;
19219;SDS011;9744;49.364;7.484;2023-09-12T04:26:06;20.10;;;5.63;;
19219;SDS011;9744;49.364;7.484;2023-09-12T04:28:34;14.43;;;6.20;;
19219;SDS011;9744;49.364;7.484;2023-09-12T04:31:02;18.80;;;5.63;;
19219;SDS011;9744;49.364;7.484;2023-09-12T04:33:30;15.65;;;5.78;;
19219;SDS011;9744;49.364;7.484;2023-09-12T04:36:00;15.32;;;6.28;;
19219;SDS011;9744;49.364;7.484;2023-09-12T04:38:28;12.80;;;5.53;;
19219;SDS011;9744;49.364;7.484;2023-09-12T04:40:56;13.93;;;5.90;;
19219;SDS011;9744;49.364;7.484;2023-09-12T04:43:28;15.95;;;6.40;;
19219;SDS011;9744;49.364;7.484;2023-09-12T04:45:55;10.38;;;5.45;;
19219;SDS011;9744;49.364;7.484;2023-09-12T04:48:23;13.95;;;6.00;;
19219;SDS011;9744;49.364;7.484;2023-09-12T04:50:50;9.63;;;5.53;;
19219;SDS011;9744;49.364;7.484;2023-09-12T04:53:19;13.13;;;5.97;;
19219;SDS011;9744;49.364;7.484;2023-09-12T04:55:46;18.30;;;6.80;;
19219;SDS011;9744;49.364;7.484;2023-09-12T04:58:14;13.63;;;6.20;;
19219;SDS011;9744;49.364;7.484;2023-09-12T05:00:41;16.02;;;6.65;;
19219;SDS011;9744;49.364;7.484;2023-09-12T05:03:08;12.77;;;6.00;;
19219;SDS011;9744;49.364;7.484;2023-09-12T05:05:36;13.05;;;6.85;;
19219;SDS011;9744;49.364;7.484;2023-09-12T05:08:05;15.75;;;6.70;;
19219;SDS011;9744;49.364;7.484;2023-09-12T05:10:34;11.35;;;6.03;;
19219;SDS011;9744;49.364;7.484;2023-09-12T05:13:02;17.95;;;6.95;;
19219;SDS011;9744;49.364;7.484;2023-09-12T05:15:29;11.70;;;6.20;;
19219;SDS011;9744;49.364;7.484;2023-09-12T05:17:57;14.82;;;7.15;;
19219;SDS011;9744;49.364;7.484;2023-09-12T05:20:24;17.58;;;6.80;;
19219;SDS011;9744;49.364;7.484;2023-09-12T05:22:51;14.45;;;7.20;;
19219;SDS011;9744;49.364;7.484;2023-09-12T05:25:18;16.35;;;6.75;;
19219;SDS011;9744;49.364;7.484;2023-09-12T05:27:49;23.90;;;6.85;;
19219;SDS011;9744;49.364;7.484;2023-09-12T05:30:17;14.70;;;7.35;;
19219;SDS011;9744;49.364;7.484;2023-09-12T05:32:44;16.30;;;6.93;;
19219;SDS011;9744;49.364;7.484;2023-09-12T05:35:11;15.13;;;7.72;;
19219;SDS011;9744;49.364;7.484;2023-09-12T05:37:39;20.80;;;8.52;;
19219;SDS011;9744;49.364;7.484;2023-09-12T05:40:06;17.70;;;7.85;;
19219;SDS011;9744;49.364;7.484;2023-09-12T05:42:35;13.93;;;7.00;;
19219;SDS011;9744;49.364;7.484;2023-09-12T05:45:06;12.90;;;7.22;;
19219;SDS011;9744;49.364;7.484;2023-09-12T05:47:33;16.00;;;7.47;;
19219;SDS011;9744;49.364;7.484;2023-09-12T05:50:02;12.15;;;7.38;;
19219;SDS011;9744;49.364;7.484;2023-09-12T05:52:32;16.08;;;7.25;;
19219;SDS011;9744;49.364;7.484;2023-09-12T05:55:00;12.85;;;7.32;;
19219;SDS011;9744;49.364;7.484;2023-09-12T05:57:29;11.27;;;7.57;;
19219;SDS011;9744;49.364;7.484;2023-09-12T05:59:58;17.27;;;7.20;;
19219;SDS011;9744;49.364;7.484;2023-09-12T06:02:28;14.85;;;7.80;;
19219;SDS011;9744;49.364;7.484;2023-09-12T06:04:56;16.25;;;7.63;;
19219;SDS011;9744;49.364;7.484;2023-09-12T06:07:23;16.50;;;7.63;;
19219;SDS011;9744;49.364;7.484;2023-09-12T06:09:50;21.15;;;7.95;;
19219;SDS011;9744;49.364;7.484;2023-09-12T06:12:17;13.95;;;7.80;;
19219;SDS011;9744;49.364;7.484;2023-09-12T06:14:45;15.40;;;7.57;;
19219;SDS011;9744;49.364;7.484;2023-09-12T06:17:12;13.25;;;8.00;;
19219;SDS011;9744;49.364;7.484;2023-09-12T06:19:41;11.40;;;7.20;;
19219;SDS011;9744;49.364;7.484;2023-09-12T06:22:08;15.15;;;7.63;;
19219;SDS011;9744;49.364;7.484;2023-09-12T06:24:35;13.75;;;7.90;;
19219;SDS011;9744;49.364;7.484;2023-09-12T06:27:04;17.85;;;8.52;;
19219;SDS011;9744;49.364;7.484;2023-09-12T06:29:31;13.45;;;8.13;;
19219;SDS011;9744;49.364;7.484;2023-09-12T06:31:59;17.52;;;8.55;;
19219;SDS011;9744;49.364;7.484;2023-09-12T06:34:27;18.75;;;8.57;;
19219;SDS011;9744;49.364;7.484;2023-09-12T06:36:56;19.77;;;8.50;;
19219;SDS011;9744;49.364;7.484;2023-09-12T06:39:23;21.65;;;9.15;;
19219;SDS011;9744;49.364;7.484;2023-09-12T06:41:50;15.95;;;7.80;;
19219;SDS011;9744;49.364;7.484;2023-09-12T06:44:18;18.88;;;8.93;;
19219;SDS011;9744;49.364;7.484;2023-09-12T06:46:45;18.45;;;8.55;;
19219;SDS011;9744;49.364;7.484;2023-09-12T06:49:12;16.88;;;7.90;;
19219;SDS011;9744;49.364;7.484;2023-09-12T06:51:39;13.68;;;8.00;;
19219;SDS011;9744;49.364;7.484;2023-09-12T06:54:08;13.05;;;7.82;;
19219;SDS011;9744;49.364;7.484;2023-09-12T06:56:35;12.13;;;8.18;;
19219;SDS011;9744;49.364;7.484;2023-09-12T06:59:03;13.00;;;8.30;;
19219;SDS011;9744;49.364;7.484;2023-09-12T07:01:31;15.50;;;8.90;;
19219;SDS011;9744;49.364;7.484;2023-09-12T07:03:58;14.75;;;7.85;;
19219;SDS011;9744;49.364;7.484;2023-09-12T07:06:25;16.27;;;8.20;;
19219;SDS011;9744;49.364;7.484;2023-09-12T07:08:53;11.43;;;8.57;;
19219;SDS011;9744;49.364;7.484;2023-09-12T07:11:23;15.90;;;8.13;;
19219;SDS011;9744;49.364;7.484;2023-09-12T07:13:51;17.90;;;8.90;;
19219;SDS011;9744;49.364;7.484;2023-09-12T07:16:18;18.45;;;8.32;;
19219;SDS011;9744;49.364;7.484;2023-09-12T07:18:45;16.50;;;8.10;;
19219;SDS011;9744;49.364;7.484;2023-09-12T07:21:14;18.27;;;8.18;;
19219;SDS011;9744;49.364;7.484;2023-09-12T07:23:41;14.95;;;8.07;;
19219;SDS011;9744;49.364;7.484;2023-09-12T07:26:11;16.95;;;8.20;;
19219;SDS011;9744;49.364;7.484;2023-09-12T07:28:40;14.63;;;7.35;;
19219;SDS011;9744;49.364;7.484;2023-09-12T07:31:08;16.88;;;7.85;;
19219;SDS011;9744;49.364;7.484;2023-09-12T07:33:35;13.93;;;8.32;;
19219;SDS011;9744;49.364;7.484;2023-09-12T07:36:03;13.63;;;8.50;;
19219;SDS011;9744;49.364;7.484;2023-09-12T07:38:31;15.05;;;8.52;;
19219;SDS011;9744;49.364;7.484;2023-09-12T07:41:00;32.50;;;9.63;;
19219;SDS011;9744;49.364;7.484;2023-09-12T07:43:28;15.05;;;8.15;;
19219;SDS011;9744;49.364;7.484;2023-09-12T07:45:57;15.05;;;8.63;;
19219;SDS011;9744;49.364;7.484;2023-09-12T07:48:24;11.95;;;8.85;;
19219;SDS011;9744;49.364;7.484;2023-09-12T07:50:53;14.48;;;8.77;;
19219;SDS011;9744;49.364;7.484;2023-09-12T07:53:20;14.07;;;10.18;;
19219;SDS011;9744;49.364;7.484;2023-09-12T07:55:48;12.95;;;9.00;;
19219;SDS011;9744;49.364;7.484;2023-09-12T07:58:16;14.95;;;9.23;;
19219;SDS011;9744;49.364;7.484;2023-09-12T08:00:45;20.30;;;10.18;;
19219;SDS011;9744;49.364;7.484;2023-09-12T08:03:14;14.90;;;9.13;;
19219;SDS011;9744;49.364;7.484;2023-09-12T08:08:31;14.98;;;8.90;;
19219;SDS011;9744;49.364;7.484;2023-09-12T08:10:58;16.25;;;9.45;;
19219;SDS011;9744;49.364;7.484;2023-09-12T08:13:26;19.77;;;9.43;;
19219;SDS011;9744;49.364;7.484;2023-09-12T08:15:54;15.98;;;9.63;;
19219;SDS011;9744;49.364;7.484;2023-09-12T08:18:25;15.55;;;9.00;;
19219;SDS011;9744;49.364;7.484;2023-09-12T08:20:56;18.60;;;9.40;;
19219;SDS011;9744;49.364;7.484;2023-09-12T08:23:23;16.95;;;9.43;;
19219;SDS011;9744;49.364;7.484;2023-09-12T08:25:51;20.77;;;9.27;;
19219;SDS011;9744;49.364;7.484;2023-09-12T08:28:18;21.05;;;9.50;;
19219;SDS011;9744;49.364;7.484;2023-09-12T08:30:45;18.88;;;9.63;;
19219;SDS011;9744;49.364;7.484;2023-09-12T08:33:15;13.00;;;9.10;;
19219;SDS011;9744;49.364;7.484;2023-09-12T08:35:44;12.70;;;8.82;;
19219;SDS011;9744;49.364;7.484;2023-09-12T08:38:11;14.52;;;8.57;;
19219;SDS011;9744;49.364;7.484;2023-09-12T08:40:39;15.65;;;8.70;;
19219;SDS011;9744;49.364;7.484;2023-09-12T08:43:07;17.27;;;8.90;;
19219;SDS011;9744;49.364;7.484;2023-09-12T08:45:34;14.70;;;9.10;;
19219;SDS011;9744;49.364;7.484;2023-09-12T08:48:02;14.85;;;9.15;;
19219;SDS011;9744;49.364;7.484;2023-09-12T08:50:38;12.57;;;8.30;;
19219;SDS011;9744;49.364;7.484;2023-09-12T08:53:07;14.73;;;9.85;;
19219;SDS011;9744;49.364;7.484;2023-09-12T08:55:35;15.68;;;9.02;;
19219;SDS011;9744;49.364;7.484;2023-09-12T08:58:02;16.77;;;8.85;;
19219;SDS011;9744;49.364;7.484;2023-09-12T09:00:31;14.02;;;8.85;;
19219;SDS011;9744;49.364;7.484;2023-09-12T09:03:06;15.98;;;9.35;;
19219;SDS011;9744;49.364;7.484;2023-09-12T09:05:34;12.80;;;8.77;;
19219;SDS011;9744;49.364;7.484;2023-09-12T09:08:03;13.38;;;9.35;;
19219;SDS011;9744;49.364;7.484;2023-09-12T09:10:32;11.27;;;9.20;;
19219;SDS011;9744;49.364;7.484;2023-09-12T09:12:59;14.30;;;9.80;;
19219;SDS011;9744;49.364;7.484;2023-09-12T09:15:27;17.27;;;9.75;;
19219;SDS011;9744;49.364;7.484;2023-09-12T09:17:56;14.70;;;10.20;;
19219;SDS011;9744;49.364;7.484;2023-09-12T09:20:26;14.48;;;9.70;;
19219;SDS011;9744;49.364;7.484;2023-09-12T09:23:02;16.60;;;9.80;;
19219;SDS011;9744;49.364;7.484;2023-09-12T09:25:33;17.88;;;9.90;;
19219;SDS011;9744;49.364;7.484;2023-09-12T09:28:03;15.35;;;10.13;;
19219;SDS011;9744;49.364;7.484;2023-09-12T09:30:41;13.10;;;10.25;;
19219;SDS011;9744;49.364;7.484;2023-09-12T09:33:10;14.25;;;10.10;;
19219;SDS011;9744;49.364;7.484;2023-09-12T09:35:38;20.15;;;10.40;;
19219;SDS011;9744;49.364;7.484;2023-09-12T09:38:08;13.48;;;9.45;;
19219;SDS011;9744;49.364;7.484;2023-09-12T09:40:37;17.08;;;9.95;;
19219;SDS011;9744;49.364;7.484;2023-09-12T09:43:04;14.02;;;9.70;;
19219;SDS011;9744;49.364;7.484;2023-09-12T09:45:32;11.85;;;9.45;;
19219;SDS011;9744;49.364;7.484;2023-09-12T09:48:03;20.00;;;10.32;;
19219;SDS011;9744;49.364;7.484;2023-09-12T09:50:33;17.85;;;10.32;;
19219;SDS011;9744;49.364;7.484;2023-09-12T09:53:02;15.38;;;10.07;;
19219;SDS011;9744;49.364;7.484;2023-09-12T09:55:33;13.43;;;10.40;;
19219;SDS011;9744;49.364;7.484;2023-09-12T09:58:02;12.80;;;9.77;;
19219;SDS011;9744;49.364;7.484;2023-09-12T10:00:33;13.85;;;9.60;;
19219;SDS011;9744;49.364;7.484;2023-09-12T10:03:04;15.35;;;8.90;;
19219;SDS011;9744;49.364;7.484;2023-09-12T10:05:32;16.08;;;9.05;;
19219;SDS011;9744;49.364;7.484;2023-09-12T10:07:59;14.82;;;9.13;;
19219;SDS011;9744;49.364;7.484;2023-09-12T10:10:30;13.30;;;9.20;;
19219;SDS011;9744;49.364;7.484;2023-09-12T10:13:00;14.25;;;9.10;;
19219;SDS011;9744;49.364;7.484;2023-09-12T10:15:32;13.85;;;8.60;;
19219;SDS011;9744;49.364;7.484;2023-09-12T10:18:01;13.65;;;8.82;;
19219;SDS011;9744;49.364;7.484;2023-09-12T10:20:37;22.45;;;8.68;;
19219;SDS011;9744;49.364;7.484;2023-09-12T10:23:11;13.70;;;8.38;;
19219;SDS011;9744;49.364;7.484;2023-09-12T10:25:44;15.88;;;8.82;;
19219;SDS011;9744;49.364;7.484;2023-09-12T10:28:14;11.93;;;8.50;;
19219;SDS011;9744;49.364;7.484;2023-09-12T10:30:42;13.32;;;8.63;;
19219;SDS011;9744;49.364;7.484;2023-09-12T10:33:10;12.13;;;8.57;;
19219;SDS011;9744;49.364;7.484;2023-09-12T10:35:40;15.32;;;8.68;;
19219;SDS011;9744;49.364;7.484;2023-09-12T10:38:08;14.88;;;8.55;;
19219;SDS011;9744;49.364;7.484;2023-09-12T10:40:36;9.73;;;7.10;;
19219;SDS011;9744;49.364;7.484;2023-09-12T10:43:05;10.70;;;8.05;;
19219;SDS011;9744;49.364;7.484;2023-09-12T10:45:36;11.25;;;7.47;;
19219;SDS011;9744;49.364;7.484;2023-09-12T10:48:04;15.38;;;7.82;;
19219;SDS011;9744;49.364;7.484;2023-09-12T10:50:31;20.25;;;7.75;;
19219;SDS011;9744;49.364;7.484;2023-09-12T10:53:07;10.18;;;7.25;;
19219;SDS011;9744;49.364;7.484;2023-09-12T10:55:36;12.23;;;6.63;;
19219;SDS011;9744;49.364;7.484;2023-09-12T10:58:04;13.80;;;7.00;;
19219;SDS011;9744;49.364;7.484;2023-09-12T11:00:32;10.02;;;6.90;;
19219;SDS011;9744;49.364;7.484;2023-09-12T11:06:05;14.18;;;7.90;;
19219;SDS011;9744;49.364;7.484;2023-09-12T11:11:43;11.27;;;7.50;;
19219;SDS011;9744;49.364;7.484;2023-09-12T11:14:12;11.13;;;7.10;;
19219;SDS011;9744;49.364;7.484;2023-09-12T11:16:40;10.27;;;7.03;;
19219;SDS011;9744;49.364;7.484;2023-09-12T11:19:15;9.60;;;6.90;;
19219;SDS011;9744;49.364;7.484;2023-09-12T11:21:44;8.98;;;6.68;;
19219;SDS011;9744;49.364;7.484;2023-09-12T11:24:12;11.05;;;6.78;;
19219;SDS011;9744;49.364;7.484;2023-09-12T11:26:53;12.73;;;7.22;;
19219;SDS011;9744;49.364;7.484;2023-09-12T11:29:27;11.38;;;6.95;;
19219;SDS011;9744;49.364;7.484;2023-09-12T11:31:58;10.77;;;6.57;;
19219;SDS011;9744;49.364;7.484;2023-09-12T11:34:30;7.78;;;6.00;;
19219;SDS011;9744;49.364;7.484;2023-09-12T11:37:05;9.30;;;5.78;;
19219;SDS011;9744;49.364;7.484;2023-09-12T11:39:34;8.43;;;5.85;;
19219;SDS011;9744;49.364;7.484;2023-09-12T11:42:03;10.15;;;5.88;;
19219;SDS011;9744;49.364;7.484;2023-09-12T11:44:34;9.48;;;5.78;;
19219;SDS011;9744;49.364;7.484;2023-09-12T11:47:02;9.90;;;5.65;;
19219;SDS011;9744;49.364;7.484;2023-09-12T11:49:36;11.75;;;6.40;;
19219;SDS011;9744;49.364;7.484;2023-09-12T11:52:07;14.48;;;6.25;;
19219;SDS011;9744;49.364;7.484;2023-09-12T11:54:35;10.77;;;6.00;;
19219;SDS011;9744;49.364;7.484;2023-09-12T11:57:03;9.05;;;5.75;;
19219;SDS011;9744;49.364;7.484;2023-09-12T11:59:31;10.38;;;6.03;;
19219;SDS011;9744;49.364;7.484;2023-09-12T12:02:00;8.48;;;5.05;;
19219;SDS011;9744;49.364;7.484;2023-09-12T12:04:32;7.70;;;5.40;;
19219;SDS011;9744;49.364;7.484;2023-09-12T12:07:01;12.00;;;5.70;;
19219;SDS011;9744;49.364;7.484;2023-09-12T12:09:29;11.45;;;5.38;;
19219;SDS011;9744;49.364;7.484;2023-09-12T12:11:59;9.70;;;4.93;;
19219;SDS011;9744;49.364;7.484;2023-09-12T12:14:33;15.07;;;5.40;;
19219;SDS011;9744;49.364;7.484;2023-09-12T12:17:05;7.88;;;4.82;;
19219;SDS011;9744;49.364;7.484;2023-09-12T12:19:34;9.95;;;5.30;;
19219;SDS011;9744;49.364;7.484;2023-09-12T12:22:04;8.80;;;5.38;;
19219;SDS011;9744;49.364;7.484;2023-09-12T12:24:36;11.95;;;4.95;;
19219;SDS011;9744;49.364;7.484;2023-09-12T12:27:04;6.35;;;4.82;;
19219;SDS011;9744;49.364;7.484;2023-09-12T12:29:33;7.88;;;5.60;;
19219;SDS011;9744;49.364;7.484;2023-09-12T12:32:02;10.18;;;5.40;;
19219;SDS011;9744;49.364;7.484;2023-09-12T12:34:30;10.63;;;4.97;;
19219;SDS011;9744;49.364;7.484;2023-09-12T12:36:58;9.25;;;5.05;;
19219;SDS011;9744;49.364;7.484;2023-09-12T12:39:27;9.02;;;5.07;;
19219;SDS011;9744;49.364;7.484;2023-09-12T12:41:54;7.65;;;5.20;;
19219;SDS011;9744;49.364;7.484;2023-09-12T12:44:22;9.23;;;4.80;;
19219;SDS011;9744;49.364;7.484;2023-09-12T12:46:58;11.75;;;5.20;;
19219;SDS011;9744;49.364;7.484;2023-09-12T12:49:27;6.88;;;5.10;;
19219;SDS011;9744;49.364;7.484;2023-09-12T12:51:54;13.82;;;5.53;;
19219;SDS011;9744;49.364;7.484;2023-09-12T12:54:22;10.50;;;5.45;;
19219;SDS011;9744;49.364;7.484;2023-09-12T12:56:51;12.23;;;5.07;;
19219;SDS011;9744;49.364;7.484;2023-09-12T12:59:20;10.73;;;5.40;;
19219;SDS011;9744;49.364;7.484;2023-09-12T13:01:47;8.50;;;4.95;;
19219;SDS011;9744;49.364;7.484;2023-09-12T13:04:15;9.27;;;5.85;;
19219;SDS011;9744;49.364;7.484;2023-09-12T13:06:42;10.30;;;5.35;;
19219;SDS011;9744;49.364;7.484;2023-09-12T13:09:10;10.32;;;5.32;;
19219;SDS011;9744;49.364;7.484;2023-09-12T13:11:38;9.18;;;4.90;;
19219;SDS011;9744;49.364;7.484;2023-09-12T13:14:08;10.57;;;5.60;;
19219;SDS011;9744;49.364;7.484;2023-09-12T13:16:36;4.75;;;4.35;;
19219;SDS011;9744;49.364;7.484;2023-09-12T13:19:04;8.73;;;4.85;;
19219;SDS011;9744;49.364;7.484;2023-09-12T13:21:32;9.18;;;4.57;;
19219;SDS011;9744;49.364;7.484;2023-09-12T13:23:59;5.85;;;4.82;;
19219;SDS011;9744;49.364;7.484;2023-09-12T13:26:26;7.43;;;4.97;;
19219;SDS011;9744;49.364;7.484;2023-09-12T13:28:54;6.57;;;4.32;;
19219;SDS011;9744;49.364;7.484;2023-09-12T13:31:24;8.15;;;4.20;;
19219;SDS011;9744;49.364;7.484;2023-09-12T13:33:51;10.90;;;5.60;;
19219;SDS011;9744;49.364;7.484;2023-09-12T13:36:19;9.30;;;4.78;;
19219;SDS011;9744;49.364;7.484;2023-09-12T13:38:46;8.35;;;4.70;;
19219;SDS011;9744;49.364;7.484;2023-09-12T13:41:15;8.00;;;4.60;;
19219;SDS011;9744;49.364;7.484;2023-09-12T13:43:42;8.60;;;4.50;;
19219;SDS011;9744;49.364;7.484;2023-09-12T13:46:10;7.68;;;4.97;;
19219;SDS011;9744;49.364;7.484;2023-09-12T13:48:39;8.88;;;5.35;;
19219;SDS011;9744;49.364;7.484;2023-09-12T13:51:07;12.05;;;5.07;;
19219;SDS011;9744;49.364;7.484;2023-09-12T13:53:34;11.07;;;5.20;;
19219;SDS011;9744;49.364;7.484;2023-09-12T13:56:02;10.73;;;5.72;;
19219;SDS011;9744;49.364;7.484;2023-09-12T13:58:29;9.57;;;5.28;;
19219;SDS011;9744;49.364;7.484;2023-09-12T14:00:56;7.45;;;5.07;;
19219;SDS011;9744;49.364;7.484;2023-09-12T14:03:24;7.88;;;4.70;;
19219;SDS011;9744;49.364;7.484;2023-09-12T14:05:53;9.93;;;5.05;;
19219;SDS011;9744;49.364;7.484;2023-09-12T14:08:20;9.05;;;4.35;;
19219;SDS011;9744;49.364;7.484;2023-09-12T14:10:47;7.72;;;4.82;;
19219;SDS011;9744;49.364;7.484;2023-09-12T14:13:14;9.40;;;4.13;;
19219;SDS011;9744;49.364;7.484;2023-09-12T14:15:42;4.55;;;4.13;;
19219;SDS011;9744;49.364;7.484;2023-09-12T14:18:11;5.80;;;3.60;;
19219;SDS011;9744;49.364;7.484;2023-09-12T14:20:38;9.65;;;3.78;;
19219;SDS011;9744;49.364;7.484;2023-09-12T14:23:07;10.25;;;4.25;;
19219;SDS011;9744;49.364;7.484;2023-09-12T14:25:34;7.57;;;4.10;;
19219;SDS011;9744;49.364;7.484;2023-09-12T14:28:02;6.70;;;3.78;;
19219;SDS011;9744;49.364;7.484;2023-09-12T14:30:31;4.75;;;3.85;;
19219;SDS011;9744;49.364;7.484;2023-09-12T14:33:01;6.90;;;4.00;;
19219;SDS011;9744;49.364;7.484;2023-09-12T14:35:29;10.38;;;4.47;;
19219;SDS011;9744;49.364;7.484;2023-09-12T14:37:56;4.90;;;3.70;;
19219;SDS011;9744;49.364;7.484;2023-09-12T14:40:25;9.05;;;3.83;;
19219;SDS011;9744;49.364;7.484;2023-09-12T14:42:53;4.07;;;3.63;;
19219;SDS011;9744;49.364;7.484;2023-09-12T14:45:20;4.80;;;3.80;;
19219;SDS011;9744;49.364;7.484;2023-09-12T14:47:50;5.28;;;3.60;;
19219;SDS011;9744;49.364;7.484;2023-09-12T14:50:18;10.40;;;3.85;;
19219;SDS011;9744;49.364;7.484;2023-09-12T14:52:45;7.25;;;3.80;;
19219;SDS011;9744;49.364;7.484;2023-09-12T14:55:12;4.70;;;3.65;;
19219;SDS011;9744;49.364;7.484;2023-09-12T14:57:41;4.05;;;3.58;;
19219;SDS011;9744;49.364;7.484;2023-09-12T15:00:09;6.28;;;3.38;;
19219;SDS011;9744;49.364;7.484;2023-09-12T15:02:37;8.80;;;3.83;;
19219;SDS011;9744;49.364;7.484;2023-09-12T15:05:10;6.90;;;3.67;;
19219;SDS011;9744;49.364;7.484;2023-09-12T15:07:37;6.43;;;3.28;;
19219;SDS011;9744;49.364;7.484;2023-09-12T15:10:05;7.53;;;3.60;;